Terminal Aerodrome Forecast
Issued by NWS Melbourne, FL

Home | Current Version | Previous Version | Text Only | Print | Product List | Glossary On
Versions: 1 2 3 4 5 6 7 8 9 10 11 12 13 14 15 16 17 18 19 20 21 22
000
FTUS42 KMLB 021604 AAC
TAFMLB
TAF AMD
KMLB 021604Z 0216/0312 VRB03KT P6SM SCT012
      TEMPO 0216/0217 BKN012
     FM021700 06008KT P6SM SCT025
     FM030000 06006KT P6SM SCT030 BKN250
     FM030600 05004KT 5SM BR OVC006=

USA.gov is the U.S. government's official web portal to all federal, state and local government web resources and services.